Chautauqua, New York
Current Conditions -  °F | °C
As of 2:55 AM on Monday 24 Nov 2014 (Local Time) from KJHW Reporting Station
Overcast Overcast  
Wind Chill: 41°   Ceiling: 1600
Heat Index: 48°   Visibility: 10mi
Dew Point: 46°   Wind: 21mph
Humidity: 93%   Direction: 160°SSE
Pressure: 29.37"   Gusts: 31mph
Location:  42.21°N, 79.47°W
Report Text: KJHW 240755Z AUTO 16018G27KT 10SM FEW010 BKN016 OVC025 09/08 A2937 RMK AO1 P0001
Loading
Personal Weather Stations






























Interactive Weather Map New forecast layout! Learn more

10-Day Weather Forecast

Advertisements
Track Severe Weather on mobile